sensor_id;sensor_type;location;lat;lon;timestamp;P1;durP1;ratioP1;P2;durP2;ratioP2
56307;SDS011;42217;50.422;7.210;2022-08-21T00:02:16;13.88;;;5.00;;
56307;SDS011;42217;50.422;7.210;2022-08-21T00:04:43;12.20;;;5.18;;
56307;SDS011;42217;50.422;7.210;2022-08-21T00:07:09;12.70;;;4.57;;
56307;SDS011;42217;50.422;7.210;2022-08-21T00:09:35;10.52;;;4.43;;
56307;SDS011;42217;50.422;7.210;2022-08-21T00:12:01;11.63;;;4.97;;
56307;SDS011;42217;50.422;7.210;2022-08-21T00:14:27;9.63;;;4.65;;
56307;SDS011;42217;50.422;7.210;2022-08-21T00:16:53;12.60;;;4.68;;
56307;SDS011;42217;50.422;7.210;2022-08-21T00:19:18;10.30;;;5.20;;
56307;SDS011;42217;50.422;7.210;2022-08-21T00:21:44;8.13;;;4.53;;
56307;SDS011;42217;50.422;7.210;2022-08-21T00:24:10;7.28;;;3.63;;
56307;SDS011;42217;50.422;7.210;2022-08-21T00:26:36;6.10;;;3.08;;
56307;SDS011;42217;50.422;7.210;2022-08-21T00:29:02;8.52;;;3.75;;
56307;SDS011;42217;50.422;7.210;2022-08-21T00:31:28;10.32;;;5.22;;
56307;SDS011;42217;50.422;7.210;2022-08-21T00:33:54;13.30;;;3.88;;
56307;SDS011;42217;50.422;7.210;2022-08-21T00:36:20;12.07;;;4.07;;
56307;SDS011;42217;50.422;7.210;2022-08-21T00:38:45;12.20;;;4.32;;
56307;SDS011;42217;50.422;7.210;2022-08-21T00:41:11;13.55;;;4.10;;
56307;SDS011;42217;50.422;7.210;2022-08-21T00:43:37;10.10;;;5.00;;
56307;SDS011;42217;50.422;7.210;2022-08-21T00:46:05;11.63;;;3.95;;
56307;SDS011;42217;50.422;7.210;2022-08-21T00:48:31;6.80;;;3.58;;
56307;SDS011;42217;50.422;7.210;2022-08-21T00:51:00;9.98;;;4.65;;
56307;SDS011;42217;50.422;7.210;2022-08-21T00:53:39;7.65;;;3.50;;
56307;SDS011;42217;50.422;7.210;2022-08-21T00:56:07;8.00;;;3.47;;
56307;SDS011;42217;50.422;7.210;2022-08-21T00:58:34;9.52;;;3.65;;
56307;SDS011;42217;50.422;7.210;2022-08-21T01:01:03;7.60;;;5.03;;
56307;SDS011;42217;50.422;7.210;2022-08-21T01:03:31;11.43;;;4.15;;
56307;SDS011;42217;50.422;7.210;2022-08-21T01:05:57;13.70;;;4.47;;
56307;SDS011;42217;50.422;7.210;2022-08-21T01:08:23;9.75;;;4.18;;
56307;SDS011;42217;50.422;7.210;2022-08-21T01:10:50;9.15;;;3.50;;
56307;SDS011;42217;50.422;7.210;2022-08-21T01:13:18;10.85;;;5.00;;
56307;SDS011;42217;50.422;7.210;2022-08-21T01:15:48;10.40;;;4.85;;
56307;SDS011;42217;50.422;7.210;2022-08-21T01:18:15;8.73;;;4.50;;
56307;SDS011;42217;50.422;7.210;2022-08-21T01:20:43;10.88;;;4.20;;
56307;SDS011;42217;50.422;7.210;2022-08-21T01:23:30;14.93;;;4.45;;
56307;SDS011;42217;50.422;7.210;2022-08-21T01:25:56;13.13;;;4.22;;
56307;SDS011;42217;50.422;7.210;2022-08-21T01:28:22;6.63;;;4.47;;
56307;SDS011;42217;50.422;7.210;2022-08-21T01:30:48;11.50;;;5.45;;
56307;SDS011;42217;50.422;7.210;2022-08-21T01:33:16;20.58;;;5.45;;
56307;SDS011;42217;50.422;7.210;2022-08-21T01:35:44;15.57;;;5.13;;
56307;SDS011;42217;50.422;7.210;2022-08-21T01:38:10;14.23;;;5.03;;
56307;SDS011;42217;50.422;7.210;2022-08-21T01:40:36;12.13;;;7.15;;
56307;SDS011;42217;50.422;7.210;2022-08-21T01:43:01;6.13;;;4.78;;
56307;SDS011;42217;50.422;7.210;2022-08-21T01:45:28;18.73;;;5.45;;
56307;SDS011;42217;50.422;7.210;2022-08-21T01:47:54;15.25;;;6.57;;
56307;SDS011;42217;50.422;7.210;2022-08-21T01:50:20;17.30;;;5.38;;
56307;SDS011;42217;50.422;7.210;2022-08-21T01:52:46;27.08;;;6.90;;
56307;SDS011;42217;50.422;7.210;2022-08-21T01:55:13;12.65;;;5.35;;
56307;SDS011;42217;50.422;7.210;2022-08-21T01:57:43;12.88;;;6.13;;
56307;SDS011;42217;50.422;7.210;2022-08-21T02:00:10;14.55;;;7.13;;
56307;SDS011;42217;50.422;7.210;2022-08-21T02:02:38;9.05;;;5.15;;
56307;SDS011;42217;50.422;7.210;2022-08-21T02:05:06;16.90;;;5.70;;
56307;SDS011;42217;50.422;7.210;2022-08-21T02:07:37;15.80;;;7.22;;
56307;SDS011;42217;50.422;7.210;2022-08-21T02:10:18;11.52;;;6.13;;
56307;SDS011;42217;50.422;7.210;2022-08-21T02:12:46;14.00;;;6.55;;
56307;SDS011;42217;50.422;7.210;2022-08-21T02:15:12;17.17;;;6.47;;
56307;SDS011;42217;50.422;7.210;2022-08-21T02:17:39;14.98;;;7.85;;
56307;SDS011;42217;50.422;7.210;2022-08-21T02:20:06;15.13;;;7.10;;
56307;SDS011;42217;50.422;7.210;2022-08-21T02:22:33;13.40;;;7.13;;
56307;SDS011;42217;50.422;7.210;2022-08-21T02:24:58;11.27;;;7.72;;
56307;SDS011;42217;50.422;7.210;2022-08-21T02:27:24;15.35;;;6.45;;
56307;SDS011;42217;50.422;7.210;2022-08-21T02:29:50;15.15;;;7.30;;
56307;SDS011;42217;50.422;7.210;2022-08-21T02:32:15;18.67;;;6.68;;
56307;SDS011;42217;50.422;7.210;2022-08-21T02:34:41;15.93;;;7.07;;
56307;SDS011;42217;50.422;7.210;2022-08-21T02:37:07;11.07;;;6.63;;
56307;SDS011;42217;50.422;7.210;2022-08-21T02:39:33;13.90;;;7.95;;
56307;SDS011;42217;50.422;7.210;2022-08-21T02:41:59;16.10;;;7.53;;
56307;SDS011;42217;50.422;7.210;2022-08-21T02:44:25;10.77;;;6.43;;
56307;SDS011;42217;50.422;7.210;2022-08-21T02:46:50;12.20;;;7.72;;
56307;SDS011;42217;50.422;7.210;2022-08-21T02:49:16;17.25;;;7.03;;
56307;SDS011;42217;50.422;7.210;2022-08-21T02:51:42;17.25;;;7.75;;
56307;SDS011;42217;50.422;7.210;2022-08-21T02:54:08;17.17;;;8.05;;
56307;SDS011;42217;50.422;7.210;2022-08-21T02:56:33;11.88;;;7.18;;
56307;SDS011;42217;50.422;7.210;2022-08-21T02:58:59;16.02;;;8.05;;
56307;SDS011;42217;50.422;7.210;2022-08-21T03:01:25;21.58;;;7.55;;
56307;SDS011;42217;50.422;7.210;2022-08-21T03:03:51;11.90;;;7.80;;
56307;SDS011;42217;50.422;7.210;2022-08-21T03:06:20;26.70;;;8.23;;
56307;SDS011;42217;50.422;7.210;2022-08-21T03:08:46;18.00;;;8.13;;
56307;SDS011;42217;50.422;7.210;2022-08-21T03:11:13;19.75;;;10.10;;
56307;SDS011;42217;50.422;7.210;2022-08-21T03:13:40;14.23;;;7.10;;
56307;SDS011;42217;50.422;7.210;2022-08-21T03:16:06;24.77;;;10.50;;
56307;SDS011;42217;50.422;7.210;2022-08-21T03:18:32;13.43;;;8.88;;
56307;SDS011;42217;50.422;7.210;2022-08-21T03:20:58;18.58;;;9.38;;
56307;SDS011;42217;50.422;7.210;2022-08-21T03:23:23;20.77;;;10.05;;
56307;SDS011;42217;50.422;7.210;2022-08-21T03:25:49;17.92;;;8.82;;
56307;SDS011;42217;50.422;7.210;2022-08-21T03:28:18;16.23;;;8.80;;
56307;SDS011;42217;50.422;7.210;2022-08-21T03:30:47;14.80;;;8.82;;
56307;SDS011;42217;50.422;7.210;2022-08-21T03:33:14;15.00;;;9.45;;
56307;SDS011;42217;50.422;7.210;2022-08-21T03:35:41;21.83;;;10.15;;
56307;SDS011;42217;50.422;7.210;2022-08-21T03:38:08;16.20;;;9.75;;
56307;SDS011;42217;50.422;7.210;2022-08-21T03:40:34;17.88;;;8.73;;
56307;SDS011;42217;50.422;7.210;2022-08-21T03:43:00;16.25;;;8.75;;
56307;SDS011;42217;50.422;7.210;2022-08-21T03:45:25;18.73;;;9.70;;
56307;SDS011;42217;50.422;7.210;2022-08-21T03:47:55;15.85;;;8.80;;
56307;SDS011;42217;50.422;7.210;2022-08-21T03:50:23;19.20;;;8.87;;
56307;SDS011;42217;50.422;7.210;2022-08-21T03:52:50;13.20;;;9.00;;
56307;SDS011;42217;50.422;7.210;2022-08-21T03:55:15;22.23;;;9.10;;
56307;SDS011;42217;50.422;7.210;2022-08-21T03:57:41;20.00;;;10.00;;
56307;SDS011;42217;50.422;7.210;2022-08-21T04:00:07;18.40;;;8.65;;
56307;SDS011;42217;50.422;7.210;2022-08-21T04:02:36;20.35;;;10.48;;
56307;SDS011;42217;50.422;7.210;2022-08-21T04:05:03;18.70;;;8.98;;
56307;SDS011;42217;50.422;7.210;2022-08-21T04:07:30;18.58;;;8.65;;
56307;SDS011;42217;50.422;7.210;2022-08-21T04:09:55;23.08;;;8.25;;
56307;SDS011;42217;50.422;7.210;2022-08-21T04:12:21;17.20;;;8.85;;
56307;SDS011;42217;50.422;7.210;2022-08-21T04:14:47;14.60;;;7.88;;
56307;SDS011;42217;50.422;7.210;2022-08-21T04:17:12;21.92;;;8.27;;
56307;SDS011;42217;50.422;7.210;2022-08-21T04:19:38;16.83;;;8.65;;
56307;SDS011;42217;50.422;7.210;2022-08-21T04:22:04;17.55;;;9.00;;
56307;SDS011;42217;50.422;7.210;2022-08-21T04:24:29;20.70;;;10.43;;
56307;SDS011;42217;50.422;7.210;2022-08-21T04:26:55;22.95;;;12.38;;
56307;SDS011;42217;50.422;7.210;2022-08-21T04:29:21;16.88;;;10.05;;
56307;SDS011;42217;50.422;7.210;2022-08-21T04:31:47;22.05;;;9.63;;
56307;SDS011;42217;50.422;7.210;2022-08-21T04:34:12;17.38;;;8.57;;
56307;SDS011;42217;50.422;7.210;2022-08-21T04:36:38;22.25;;;10.25;;
56307;SDS011;42217;50.422;7.210;2022-08-21T04:39:04;22.13;;;9.50;;
56307;SDS011;42217;50.422;7.210;2022-08-21T04:41:30;24.77;;;10.52;;
56307;SDS011;42217;50.422;7.210;2022-08-21T04:43:56;18.52;;;10.52;;
56307;SDS011;42217;50.422;7.210;2022-08-21T04:46:22;16.85;;;9.95;;
56307;SDS011;42217;50.422;7.210;2022-08-21T04:48:48;23.40;;;10.23;;
56307;SDS011;42217;50.422;7.210;2022-08-21T04:51:16;22.70;;;11.00;;
56307;SDS011;42217;50.422;7.210;2022-08-21T04:56:24;23.63;;;11.02;;
56307;SDS011;42217;50.422;7.210;2022-08-21T04:58:54;16.58;;;9.95;;
56307;SDS011;42217;50.422;7.210;2022-08-21T05:01:22;21.30;;;10.75;;
56307;SDS011;42217;50.422;7.210;2022-08-21T05:03:50;13.80;;;7.88;;
56307;SDS011;42217;50.422;7.210;2022-08-21T05:06:20;24.25;;;9.73;;
56307;SDS011;42217;50.422;7.210;2022-08-21T05:08:47;12.40;;;8.80;;
56307;SDS011;42217;50.422;7.210;2022-08-21T05:11:16;15.65;;;7.65;;
56307;SDS011;42217;50.422;7.210;2022-08-21T05:13:41;22.05;;;7.90;;
56307;SDS011;42217;50.422;7.210;2022-08-21T05:16:08;15.02;;;9.07;;
56307;SDS011;42217;50.422;7.210;2022-08-21T05:18:34;26.58;;;12.32;;
56307;SDS011;42217;50.422;7.210;2022-08-21T05:21:00;18.48;;;11.88;;
56307;SDS011;42217;50.422;7.210;2022-08-21T05:23:25;16.10;;;8.15;;
56307;SDS011;42217;50.422;7.210;2022-08-21T05:25:52;13.68;;;8.10;;
56307;SDS011;42217;50.422;7.210;2022-08-21T05:28:19;17.85;;;8.05;;
56307;SDS011;42217;50.422;7.210;2022-08-21T05:30:45;11.20;;;6.10;;
56307;SDS011;42217;50.422;7.210;2022-08-21T05:33:10;17.20;;;9.68;;
56307;SDS011;42217;50.422;7.210;2022-08-21T05:35:37;9.00;;;5.72;;
56307;SDS011;42217;50.422;7.210;2022-08-21T05:38:03;13.07;;;5.63;;
56307;SDS011;42217;50.422;7.210;2022-08-21T05:40:30;11.00;;;6.15;;
56307;SDS011;42217;50.422;7.210;2022-08-21T05:42:57;9.77;;;6.53;;
56307;SDS011;42217;50.422;7.210;2022-08-21T05:45:25;15.63;;;8.40;;
56307;SDS011;42217;50.422;7.210;2022-08-21T05:47:55;23.55;;;10.05;;
56307;SDS011;42217;50.422;7.210;2022-08-21T05:50:20;29.10;;;8.95;;
56307;SDS011;42217;50.422;7.210;2022-08-21T05:52:46;28.90;;;10.60;;
56307;SDS011;42217;50.422;7.210;2022-08-21T05:55:12;23.33;;;8.80;;
56307;SDS011;42217;50.422;7.210;2022-08-21T05:57:38;20.08;;;8.18;;
56307;SDS011;42217;50.422;7.210;2022-08-21T06:00:06;26.02;;;8.85;;
56307;SDS011;42217;50.422;7.210;2022-08-21T06:02:34;20.00;;;10.82;;
56307;SDS011;42217;50.422;7.210;2022-08-21T06:05:00;15.32;;;9.25;;
56307;SDS011;42217;50.422;7.210;2022-08-21T06:07:26;21.30;;;10.20;;
56307;SDS011;42217;50.422;7.210;2022-08-21T06:09:52;22.60;;;9.85;;
56307;SDS011;42217;50.422;7.210;2022-08-21T06:12:17;23.70;;;9.38;;
56307;SDS011;42217;50.422;7.210;2022-08-21T06:14:43;21.35;;;8.88;;
56307;SDS011;42217;50.422;7.210;2022-08-21T06:17:10;29.48;;;8.43;;
56307;SDS011;42217;50.422;7.210;2022-08-21T06:19:38;25.00;;;8.50;;
56307;SDS011;42217;50.422;7.210;2022-08-21T06:22:04;20.48;;;7.75;;
56307;SDS011;42217;50.422;7.210;2022-08-21T06:24:31;16.70;;;6.82;;
56307;SDS011;42217;50.422;7.210;2022-08-21T06:26:57;12.20;;;8.63;;
56307;SDS011;42217;50.422;7.210;2022-08-21T06:29:22;10.68;;;7.50;;
56307;SDS011;42217;50.422;7.210;2022-08-21T06:31:49;11.18;;;7.88;;
56307;SDS011;42217;50.422;7.210;2022-08-21T06:34:17;22.85;;;9.00;;
56307;SDS011;42217;50.422;7.210;2022-08-21T06:36:43;24.88;;;8.05;;
56307;SDS011;42217;50.422;7.210;2022-08-21T06:39:09;16.42;;;7.20;;
56307;SDS011;42217;50.422;7.210;2022-08-21T06:41:35;21.08;;;7.20;;
56307;SDS011;42217;50.422;7.210;2022-08-21T06:44:00;33.80;;;8.23;;
56307;SDS011;42217;50.422;7.210;2022-08-21T06:46:28;24.88;;;6.88;;
56307;SDS011;42217;50.422;7.210;2022-08-21T06:48:54;20.08;;;6.75;;
56307;SDS011;42217;50.422;7.210;2022-08-21T06:51:20;16.15;;;5.70;;
56307;SDS011;42217;50.422;7.210;2022-08-21T06:53:46;19.67;;;4.97;;
56307;SDS011;42217;50.422;7.210;2022-08-21T06:56:12;14.20;;;5.63;;
56307;SDS011;42217;50.422;7.210;2022-08-21T06:58:38;11.75;;;5.15;;
56307;SDS011;42217;50.422;7.210;2022-08-21T07:01:04;10.93;;;4.18;;
56307;SDS011;42217;50.422;7.210;2022-08-21T07:03:31;6.75;;;4.45;;
56307;SDS011;42217;50.422;7.210;2022-08-21T07:05:59;9.30;;;3.22;;
56307;SDS011;42217;50.422;7.210;2022-08-21T07:08:25;6.80;;;2.72;;
56307;SDS011;42217;50.422;7.210;2022-08-21T07:10:53;7.05;;;2.78;;
56307;SDS011;42217;50.422;7.210;2022-08-21T07:13:21;9.43;;;2.45;;
56307;SDS011;42217;50.422;7.210;2022-08-21T07:15:46;8.77;;;2.45;;
56307;SDS011;42217;50.422;7.210;2022-08-21T07:18:12;12.65;;;2.40;;
56307;SDS011;42217;50.422;7.210;2022-08-21T07:20:39;7.43;;;1.52;;
56307;SDS011;42217;50.422;7.210;2022-08-21T07:23:06;8.05;;;2.65;;
56307;SDS011;42217;50.422;7.210;2022-08-21T07:25:35;7.05;;;2.25;;
56307;SDS011;42217;50.422;7.210;2022-08-21T07:28:01;9.80;;;1.92;;
56307;SDS011;42217;50.422;7.210;2022-08-21T07:30:27;8.23;;;2.45;;
56307;SDS011;42217;50.422;7.210;2022-08-21T07:32:53;10.73;;;2.63;;
56307;SDS011;42217;50.422;7.210;2022-08-21T07:35:20;5.88;;;2.15;;
56307;SDS011;42217;50.422;7.210;2022-08-21T07:37:46;10.82;;;2.22;;
56307;SDS011;42217;50.422;7.210;2022-08-21T07:40:12;4.03;;;2.00;;
56307;SDS011;42217;50.422;7.210;2022-08-21T07:42:42;9.60;;;2.60;;
56307;SDS011;42217;50.422;7.210;2022-08-21T07:45:09;8.02;;;2.47;;
56307;SDS011;42217;50.422;7.210;2022-08-21T07:47:36;6.80;;;2.20;;
56307;SDS011;42217;50.422;7.210;2022-08-21T07:50:01;5.85;;;2.85;;
56307;SDS011;42217;50.422;7.210;2022-08-21T07:52:28;7.35;;;2.30;;
56307;SDS011;42217;50.422;7.210;2022-08-21T07:54:53;11.68;;;2.42;;
56307;SDS011;42217;50.422;7.210;2022-08-21T07:57:19;5.18;;;1.92;;
56307;SDS011;42217;50.422;7.210;2022-08-21T07:59:45;14.45;;;2.92;;
56307;SDS011;42217;50.422;7.210;2022-08-21T08:02:20;10.43;;;2.70;;
56307;SDS011;42217;50.422;7.210;2022-08-21T08:04:51;13.63;;;2.50;;
56307;SDS011;42217;50.422;7.210;2022-08-21T08:07:17;4.68;;;2.10;;
56307;SDS011;42217;50.422;7.210;2022-08-21T08:09:43;7.40;;;2.80;;
56307;SDS011;42217;50.422;7.210;2022-08-21T08:12:09;9.98;;;2.83;;
56307;SDS011;42217;50.422;7.210;2022-08-21T08:14:35;7.78;;;2.08;;
56307;SDS011;42217;50.422;7.210;2022-08-21T08:17:01;8.18;;;2.53;;
56307;SDS011;42217;50.422;7.210;2022-08-21T08:19:27;11.23;;;2.72;;
56307;SDS011;42217;50.422;7.210;2022-08-21T08:21:53;6.93;;;2.53;;
56307;SDS011;42217;50.422;7.210;2022-08-21T08:24:19;15.82;;;2.45;;
56307;SDS011;42217;50.422;7.210;2022-08-21T08:26:46;4.28;;;1.85;;
56307;SDS011;42217;50.422;7.210;2022-08-21T08:29:12;7.13;;;2.53;;
56307;SDS011;42217;50.422;7.210;2022-08-21T08:31:37;7.55;;;2.10;;
56307;SDS011;42217;50.422;7.210;2022-08-21T08:34:03;8.75;;;1.77;;
56307;SDS011;42217;50.422;7.210;2022-08-21T08:36:33;14.27;;;4.22;;
56307;SDS011;42217;50.422;7.210;2022-08-21T08:39:00;9.23;;;1.85;;
56307;SDS011;42217;50.422;7.210;2022-08-21T08:41:28;9.25;;;2.25;;
56307;SDS011;42217;50.422;7.210;2022-08-21T08:43:58;7.28;;;2.92;;
56307;SDS011;42217;50.422;7.210;2022-08-21T08:46:46;16.77;;;2.22;;
56307;SDS011;42217;50.422;7.210;2022-08-21T08:49:27;6.68;;;2.03;;
56307;SDS011;42217;50.422;7.210;2022-08-21T08:52:33;5.45;;;2.15;;
56307;SDS011;42217;50.422;7.210;2022-08-21T08:55:23;6.00;;;1.70;;
56307;SDS011;42217;50.422;7.210;2022-08-21T08:57:51;5.40;;;2.17;;
56307;SDS011;42217;50.422;7.210;2022-08-21T09:00:19;6.95;;;2.28;;
56307;SDS011;42217;50.422;7.210;2022-08-21T09:02:47;8.90;;;2.22;;
56307;SDS011;42217;50.422;7.210;2022-08-21T09:05:24;8.75;;;2.28;;
56307;SDS011;42217;50.422;7.210;2022-08-21T09:13:28;10.43;;;1.88;;
56307;SDS011;42217;50.422;7.210;2022-08-21T09:16:17;14.70;;;2.17;;
56307;SDS011;42217;50.422;7.210;2022-08-21T09:21:48;12.90;;;2.13;;
56307;SDS011;42217;50.422;7.210;2022-08-21T09:29:28;7.10;;;2.47;;
56307;SDS011;42217;50.422;7.210;2022-08-21T09:31:58;6.05;;;2.75;;
56307;SDS011;42217;50.422;7.210;2022-08-21T09:34:25;12.88;;;2.28;;
56307;SDS011;42217;50.422;7.210;2022-08-21T09:36:53;9.80;;;1.75;;
56307;SDS011;42217;50.422;7.210;2022-08-21T09:39:30;11.88;;;2.13;;
56307;SDS011;42217;50.422;7.210;2022-08-21T09:42:08;4.28;;;1.58;;
56307;SDS011;42217;50.422;7.210;2022-08-21T09:44:36;6.88;;;2.47;;
56307;SDS011;42217;50.422;7.210;2022-08-21T09:47:06;4.85;;;1.55;;
56307;SDS011;42217;50.422;7.210;2022-08-21T09:49:34;12.65;;;4.00;;
56307;SDS011;42217;50.422;7.210;2022-08-21T09:52:03;4.65;;;2.03;;
56307;SDS011;42217;50.422;7.210;2022-08-21T09:54:38;7.63;;;2.40;;
56307;SDS011;42217;50.422;7.210;2022-08-21T09:59:53;6.68;;;2.13;;
56307;SDS011;42217;50.422;7.210;2022-08-21T10:02:33;12.75;;;2.13;;
56307;SDS011;42217;50.422;7.210;2022-08-21T10:05:02;9.43;;;2.13;;
56307;SDS011;42217;50.422;7.210;2022-08-21T10:07:35;8.32;;;1.95;;
56307;SDS011;42217;50.422;7.210;2022-08-21T10:17:48;7.25;;;1.95;;
56307;SDS011;42217;50.422;7.210;2022-08-21T10:25:52;7.97;;;1.55;;
56307;SDS011;42217;50.422;7.210;2022-08-21T10:34:02;8.75;;;1.55;;
56307;SDS011;42217;50.422;7.210;2022-08-21T10:40:12;6.43;;;1.25;;
56307;SDS011;42217;50.422;7.210;2022-08-21T10:45:33;6.80;;;2.00;;
56307;SDS011;42217;50.422;7.210;2022-08-21T10:48:16;9.55;;;1.60;;
56307;SDS011;42217;50.422;7.210;2022-08-21T10:50:54;4.35;;;1.50;;
56307;SDS011;42217;50.422;7.210;2022-08-21T10:56:19;4.05;;;1.42;;
56307;SDS011;42217;50.422;7.210;2022-08-21T11:04:48;3.70;;;1.80;;
56307;SDS011;42217;50.422;7.210;2022-08-21T11:07:26;8.75;;;1.45;;
56307;SDS011;42217;50.422;7.210;2022-08-21T11:09:58;5.22;;;1.77;;
56307;SDS011;42217;50.422;7.210;2022-08-21T11:12:53;6.88;;;1.50;;
56307;SDS011;42217;50.422;7.210;2022-08-21T11:15:27;8.13;;;2.38;;
56307;SDS011;42217;50.422;7.210;2022-08-21T11:18:00;3.53;;;1.55;;
56307;SDS011;42217;50.422;7.210;2022-08-21T11:20:47;5.05;;;1.38;;
56307;SDS011;42217;50.422;7.210;2022-08-21T11:23:17;4.30;;;1.42;;
56307;SDS011;42217;50.422;7.210;2022-08-21T11:28:43;6.03;;;1.70;;
56307;SDS011;42217;50.422;7.210;2022-08-21T11:48:00;2.50;;;1.05;;
56307;SDS011;42217;50.422;7.210;2022-08-21T11:50:40;7.53;;;1.25;;
56307;SDS011;42217;50.422;7.210;2022-08-21T11:53:14;7.03;;;1.65;;
56307;SDS011;42217;50.422;7.210;2022-08-21T11:58:56;2.67;;;1.00;;
56307;SDS011;42217;50.422;7.210;2022-08-21T12:01:16;6.43;;;1.38;;
56307;SDS011;42217;50.422;7.210;2022-08-21T12:03:55;4.35;;;1.38;;
56307;SDS011;42217;50.422;7.210;2022-08-21T12:06:46;8.10;;;1.40;;
56307;SDS011;42217;50.422;7.210;2022-08-21T12:11:50;5.65;;;1.08;;
56307;SDS011;42217;50.422;7.210;2022-08-21T12:14:34;5.70;;;1.25;;
56307;SDS011;42217;50.422;7.210;2022-08-21T12:17:22;3.63;;;0.90;;
56307;SDS011;42217;50.422;7.210;2022-08-21T12:20:02;4.88;;;1.05;;
56307;SDS011;42217;50.422;7.210;2022-08-21T12:22:40;4.35;;;1.42;;
56307;SDS011;42217;50.422;7.210;2022-08-21T12:25:15;7.68;;;0.93;;
56307;SDS011;42217;50.422;7.210;2022-08-21T12:30:23;6.32;;;1.02;;
56307;SDS011;42217;50.422;7.210;2022-08-21T12:33:02;2.30;;;0.80;;
56307;SDS011;42217;50.422;7.210;2022-08-21T12:35:33;3.45;;;0.80;;
56307;SDS011;42217;50.422;7.210;2022-08-21T12:41:00;3.70;;;1.15;;
56307;SDS011;42217;50.422;7.210;2022-08-21T12:43:37;6.22;;;1.30;;
56307;SDS011;42217;50.422;7.210;2022-08-21T12:46:19;5.78;;;1.30;;
56307;SDS011;42217;50.422;7.210;2022-08-21T12:48:52;4.10;;;1.15;;
56307;SDS011;42217;50.422;7.210;2022-08-21T12:51:24;9.27;;;1.35;;
56307;SDS011;42217;50.422;7.210;2022-08-21T12:53:58;5.45;;;1.00;;
56307;SDS011;42217;50.422;7.210;2022-08-21T12:56:25;7.70;;;1.20;;
56307;SDS011;42217;50.422;7.210;2022-08-21T12:59:01;2.70;;;0.82;;
56307;SDS011;42217;50.422;7.210;2022-08-21T13:01:35;3.60;;;0.93;;
56307;SDS011;42217;50.422;7.210;2022-08-21T13:04:09;4.18;;;1.27;;
56307;SDS011;42217;50.422;7.210;2022-08-21T13:06:38;2.28;;;0.93;;
56307;SDS011;42217;50.422;7.210;2022-08-21T13:09:07;2.95;;;0.70;;
56307;SDS011;42217;50.422;7.210;2022-08-21T13:11:39;4.28;;;1.23;;
56307;SDS011;42217;50.422;7.210;2022-08-21T13:14:09;3.95;;;0.80;;
56307;SDS011;42217;50.422;7.210;2022-08-21T13:16:59;5.40;;;1.33;;
56307;SDS011;42217;50.422;7.210;2022-08-21T13:19:30;6.40;;;1.30;;
56307;SDS011;42217;50.422;7.210;2022-08-21T13:21:57;2.90;;;1.27;;
56307;SDS011;42217;50.422;7.210;2022-08-21T13:26:54;1.83;;;0.60;;
56307;SDS011;42217;50.422;7.210;2022-08-21T13:29:22;2.47;;;0.75;;
56307;SDS011;42217;50.422;7.210;2022-08-21T13:32:13;2.95;;;1.00;;
56307;SDS011;42217;50.422;7.210;2022-08-21T13:34:45;4.47;;;1.10;;
56307;SDS011;42217;50.422;7.210;2022-08-21T13:37:11;2.63;;;0.80;;
56307;SDS011;42217;50.422;7.210;2022-08-21T13:39:37;3.28;;;1.13;;
56307;SDS011;42217;50.422;7.210;2022-08-21T13:42:04;3.95;;;0.90;;
56307;SDS011;42217;50.422;7.210;2022-08-21T13:47:12;3.55;;;0.82;;
56307;SDS011;42217;50.422;7.210;2022-08-21T13:49:40;2.75;;;0.75;;
56307;SDS011;42217;50.422;7.210;2022-08-21T13:52:20;1.92;;;0.70;;
56307;SDS011;42217;50.422;7.210;2022-08-21T13:54:58;3.80;;;0.80;;
56307;SDS011;42217;50.422;7.210;2022-08-21T13:57:27;3.38;;;0.95;;
56307;SDS011;42217;50.422;7.210;2022-08-21T14:05:56;3.10;;;0.90;;
56307;SDS011;42217;50.422;7.210;2022-08-21T14:08:26;8.13;;;1.58;;
56307;SDS011;42217;50.422;7.210;2022-08-21T14:11:00;2.38;;;0.88;;
56307;SDS011;42217;50.422;7.210;2022-08-21T14:16:03;4.75;;;0.73;;
56307;SDS011;42217;50.422;7.210;2022-08-21T14:18:43;3.72;;;1.08;;
56307;SDS011;42217;50.422;7.210;2022-08-21T14:21:10;4.18;;;1.10;;
56307;SDS011;42217;50.422;7.210;2022-08-21T14:23:38;2.85;;;1.27;;
56307;SDS011;42217;50.422;7.210;2022-08-21T14:26:05;4.63;;;0.80;;
56307;SDS011;42217;50.422;7.210;2022-08-21T14:28:40;5.80;;;0.77;;
56307;SDS011;42217;50.422;7.210;2022-08-21T14:31:17;3.25;;;1.30;;
56307;SDS011;42217;50.422;7.210;2022-08-21T14:33:44;6.20;;;0.88;;
56307;SDS011;42217;50.422;7.210;2022-08-21T14:36:10;3.53;;;0.55;;
56307;SDS011;42217;50.422;7.210;2022-08-21T14:38:38;2.88;;;0.80;;
56307;SDS011;42217;50.422;7.210;2022-08-21T14:41:15;2.58;;;0.93;;
56307;SDS011;42217;50.422;7.210;2022-08-21T14:43:49;1.77;;;1.10;;
56307;SDS011;42217;50.422;7.210;2022-08-21T14:46:20;2.85;;;1.08;;
56307;SDS011;42217;50.422;7.210;2022-08-21T14:48:48;2.53;;;0.70;;
56307;SDS011;42217;50.422;7.210;2022-08-21T14:51:14;2.67;;;0.73;;
56307;SDS011;42217;50.422;7.210;2022-08-21T14:53:40;3.78;;;0.90;;
56307;SDS011;42217;50.422;7.210;2022-08-21T14:56:06;2.83;;;0.60;;
56307;SDS011;42217;50.422;7.210;2022-08-21T14:58:38;3.10;;;0.70;;
56307;SDS011;42217;50.422;7.210;2022-08-21T15:01:06;3.03;;;1.17;;
56307;SDS011;42217;50.422;7.210;2022-08-21T15:03:34;6.20;;;1.65;;
56307;SDS011;42217;50.422;7.210;2022-08-21T15:06:00;6.55;;;0.95;;
56307;SDS011;42217;50.422;7.210;2022-08-21T15:08:26;2.05;;;0.90;;
56307;SDS011;42217;50.422;7.210;2022-08-21T15:10:52;3.92;;;1.40;;
56307;SDS011;42217;50.422;7.210;2022-08-21T15:13:19;2.78;;;0.93;;
56307;SDS011;42217;50.422;7.210;2022-08-21T15:15:46;2.53;;;0.57;;
56307;SDS011;42217;50.422;7.210;2022-08-21T15:18:13;4.13;;;0.68;;
56307;SDS011;42217;50.422;7.210;2022-08-21T15:20:39;5.68;;;1.85;;
56307;SDS011;42217;50.422;7.210;2022-08-21T15:23:06;1.83;;;0.90;;
56307;SDS011;42217;50.422;7.210;2022-08-21T15:25:33;4.88;;;0.88;;
56307;SDS011;42217;50.422;7.210;2022-08-21T15:28:00;5.15;;;1.10;;
56307;SDS011;42217;50.422;7.210;2022-08-21T15:30:28;5.00;;;1.45;;
56307;SDS011;42217;50.422;7.210;2022-08-21T15:32:57;4.40;;;1.13;;
56307;SDS011;42217;50.422;7.210;2022-08-21T15:35:22;2.88;;;0.68;;
56307;SDS011;42217;50.422;7.210;2022-08-21T15:37:48;6.10;;;1.15;;
56307;SDS011;42217;50.422;7.210;2022-08-21T15:40:14;3.55;;;1.17;;
56307;SDS011;42217;50.422;7.210;2022-08-21T15:42:41;5.72;;;0.80;;
56307;SDS011;42217;50.422;7.210;2022-08-21T15:45:08;2.10;;;0.60;;
56307;SDS011;42217;50.422;7.210;2022-08-21T15:47:36;4.57;;;1.33;;
56307;SDS011;42217;50.422;7.210;2022-08-21T15:50:04;4.40;;;0.80;;
56307;SDS011;42217;50.422;7.210;2022-08-21T15:52:35;4.55;;;0.80;;
56307;SDS011;42217;50.422;7.210;2022-08-21T15:55:01;3.50;;;1.00;;
56307;SDS011;42217;50.422;7.210;2022-08-21T15:57:27;4.65;;;0.80;;
56307;SDS011;42217;50.422;7.210;2022-08-21T15:59:54;3.35;;;1.10;;
56307;SDS011;42217;50.422;7.210;2022-08-21T16:02:34;5.43;;;1.15;;
56307;SDS011;42217;50.422;7.210;2022-08-21T16:05:01;3.08;;;1.08;;
56307;SDS011;42217;50.422;7.210;2022-08-21T16:07:26;5.10;;;1.35;;
56307;SDS011;42217;50.422;7.210;2022-08-21T16:09:52;2.90;;;0.80;;
56307;SDS011;42217;50.422;7.210;2022-08-21T16:12:28;4.97;;;1.02;;
56307;SDS011;42217;50.422;7.210;2022-08-21T16:14:57;4.05;;;1.02;;
56307;SDS011;42217;50.422;7.210;2022-08-21T16:17:25;2.40;;;1.08;;
56307;SDS011;42217;50.422;7.210;2022-08-21T16:19:54;3.63;;;0.98;;
56307;SDS011;42217;50.422;7.210;2022-08-21T16:22:20;3.42;;;0.88;;
56307;SDS011;42217;50.422;7.210;2022-08-21T16:24:46;7.75;;;1.15;;
56307;SDS011;42217;50.422;7.210;2022-08-21T16:27:12;6.43;;;1.60;;
56307;SDS011;42217;50.422;7.210;2022-08-21T16:29:38;4.00;;;1.23;;